sensor_id;sensor_type;location;lat;lon;timestamp;temperature;humidity
13369;DHT22;6753;52.520;13.450;2023-04-15T00:00:07;19.50;60.20
13369;DHT22;6753;52.520;13.450;2023-04-15T00:00:19;19.50;60.20
13369;DHT22;6753;52.520;13.450;2023-04-15T00:00:30;19.50;60.20
13369;DHT22;6753;52.520;13.450;2023-04-15T00:00:41;19.50;60.30
13369;DHT22;6753;52.520;13.450;2023-04-15T00:00:51;19.50;60.30
13369;DHT22;6753;52.520;13.450;2023-04-15T00:01:03;19.50;60.30
13369;DHT22;6753;52.520;13.450;2023-04-15T00:01:15;19.50;60.20
13369;DHT22;6753;52.520;13.450;2023-04-15T00:01:28;19.50;60.20
13369;DHT22;6753;52.520;13.450;2023-04-15T00:01:43;19.50;60.20
13369;DHT22;6753;52.520;13.450;2023-04-15T00:01:57;19.40;60.10
13369;DHT22;6753;52.520;13.450;2023-04-15T00:02:15;19.60;60.20
13369;DHT22;6753;52.520;13.450;2023-04-15T00:02:27;19.50;60.00
13369;DHT22;6753;52.520;13.450;2023-04-15T00:02:38;19.50;60.00
13369;DHT22;6753;52.520;13.450;2023-04-15T00:02:49;22.50;62.10
13369;DHT22;6753;52.520;13.450;2023-04-15T00:03:00;21.40;61.40
13369;DHT22;6753;52.520;13.450;2023-04-15T00:03:12;19.50;60.10
13369;DHT22;6753;52.520;13.450;2023-04-15T00:03:23;19.50;60.00
13369;DHT22;6753;52.520;13.450;2023-04-15T00:03:34;19.50;59.90
13369;DHT22;6753;52.520;13.450;2023-04-15T00:03:44;19.50;59.80
13369;DHT22;6753;52.520;13.450;2023-04-15T00:03:55;19.50;59.70
13369;DHT22;6753;52.520;13.450;2023-04-15T00:04:06;19.50;59.70
13369;DHT22;6753;52.520;13.450;2023-04-15T00:04:17;19.50;59.70
13369;DHT22;6753;52.520;13.450;2023-04-15T00:04:28;19.50;59.70
13369;DHT22;6753;52.520;13.450;2023-04-15T00:04:41;19.50;59.70
13369;DHT22;6753;52.520;13.450;2023-04-15T00:04:51;19.50;59.90
13369;DHT22;6753;52.520;13.450;2023-04-15T00:05:03;21.00;61.00
13369;DHT22;6753;52.520;13.450;2023-04-15T00:05:14;19.40;60.00
13369;DHT22;6753;52.520;13.450;2023-04-15T00:05:25;19.40;60.00
13369;DHT22;6753;52.520;13.450;2023-04-15T00:05:35;19.40;60.00
13369;DHT22;6753;52.520;13.450;2023-04-15T00:05:46;19.40;60.00
13369;DHT22;6753;52.520;13.450;2023-04-15T00:05:57;19.50;60.20
13369;DHT22;6753;52.520;13.450;2023-04-15T00:06:09;19.50;60.00
13369;DHT22;6753;52.520;13.450;2023-04-15T00:06:20;19.50;60.30
13369;DHT22;6753;52.520;13.450;2023-04-15T00:06:31;19.40;59.90
13369;DHT22;6753;52.520;13.450;2023-04-15T00:06:41;19.40;59.90
13369;DHT22;6753;52.520;13.450;2023-04-15T00:06:52;19.40;60.00
13369;DHT22;6753;52.520;13.450;2023-04-15T00:07:04;19.50;60.10
13369;DHT22;6753;52.520;13.450;2023-04-15T00:07:14;19.40;59.90
13369;DHT22;6753;52.520;13.450;2023-04-15T00:07:25;19.40;59.80
13369;DHT22;6753;52.520;13.450;2023-04-15T00:07:37;19.50;60.00
13369;DHT22;6753;52.520;13.450;2023-04-15T00:07:48;19.50;60.00
13369;DHT22;6753;52.520;13.450;2023-04-15T00:08:00;19.50;59.90
13369;DHT22;6753;52.520;13.450;2023-04-15T00:08:11;19.40;59.60
13369;DHT22;6753;52.520;13.450;2023-04-15T00:08:22;19.40;60.00
13369;DHT22;6753;52.520;13.450;2023-04-15T00:08:33;19.40;59.80
13369;DHT22;6753;52.520;13.450;2023-04-15T00:08:45;19.40;60.00
13369;DHT22;6753;52.520;13.450;2023-04-15T00:08:56;19.50;60.30
13369;DHT22;6753;52.520;13.450;2023-04-15T00:09:07;19.50;60.40
13369;DHT22;6753;52.520;13.450;2023-04-15T00:09:18;19.50;60.20
13369;DHT22;6753;52.520;13.450;2023-04-15T00:09:29;19.50;60.20
13369;DHT22;6753;52.520;13.450;2023-04-15T00:09:40;19.50;60.20
13369;DHT22;6753;52.520;13.450;2023-04-15T00:09:51;19.50;60.00
13369;DHT22;6753;52.520;13.450;2023-04-15T00:10:05;21.20;61.10
13369;DHT22;6753;52.520;13.450;2023-04-15T00:10:16;19.50;59.70
13369;DHT22;6753;52.520;13.450;2023-04-15T00:10:27;19.50;59.60
13369;DHT22;6753;52.520;13.450;2023-04-15T00:10:38;19.50;59.70
13369;DHT22;6753;52.520;13.450;2023-04-15T00:10:48;19.50;59.70
13369;DHT22;6753;52.520;13.450;2023-04-15T00:11:00;19.50;59.70
13369;DHT22;6753;52.520;13.450;2023-04-15T00:11:15;19.50;59.90
13369;DHT22;6753;52.520;13.450;2023-04-15T00:11:26;19.50;59.70
13369;DHT22;6753;52.520;13.450;2023-04-15T00:11:37;19.50;59.60
13369;DHT22;6753;52.520;13.450;2023-04-15T00:11:49;19.50;60.00
13369;DHT22;6753;52.520;13.450;2023-04-15T00:12:00;19.50;60.10
13369;DHT22;6753;52.520;13.450;2023-04-15T00:12:11;19.40;60.10
13369;DHT22;6753;52.520;13.450;2023-04-15T00:12:22;19.40;60.00
13369;DHT22;6753;52.520;13.450;2023-04-15T00:12:32;19.80;60.30
13369;DHT22;6753;52.520;13.450;2023-04-15T00:12:44;18.40;58.70
13369;DHT22;6753;52.520;13.450;2023-04-15T00:12:55;19.40;60.10
13369;DHT22;6753;52.520;13.450;2023-04-15T00:13:06;19.40;60.00
13369;DHT22;6753;52.520;13.450;2023-04-15T00:13:16;19.50;60.00
13369;DHT22;6753;52.520;13.450;2023-04-15T00:13:27;19.50;60.10
13369;DHT22;6753;52.520;13.450;2023-04-15T00:13:38;19.50;60.20
13369;DHT22;6753;52.520;13.450;2023-04-15T00:13:50;19.50;60.20
13369;DHT22;6753;52.520;13.450;2023-04-15T00:14:01;19.50;60.30
13369;DHT22;6753;52.520;13.450;2023-04-15T00:14:12;19.50;60.20
13369;DHT22;6753;52.520;13.450;2023-04-15T00:14:22;19.50;60.10
13369;DHT22;6753;52.520;13.450;2023-04-15T00:14:33;19.50;60.10
13369;DHT22;6753;52.520;13.450;2023-04-15T00:14:45;19.50;60.00
13369;DHT22;6753;52.520;13.450;2023-04-15T00:14:55;19.50;60.00
13369;DHT22;6753;52.520;13.450;2023-04-15T00:15:09;19.50;60.00
13369;DHT22;6753;52.520;13.450;2023-04-15T00:15:19;19.50;59.80
13369;DHT22;6753;52.520;13.450;2023-04-15T00:15:31;19.50;59.80
13369;DHT22;6753;52.520;13.450;2023-04-15T00:15:42;19.50;59.70
13369;DHT22;6753;52.520;13.450;2023-04-15T00:15:53;19.50;59.80
13369;DHT22;6753;52.520;13.450;2023-04-15T00:16:04;19.50;59.90
13369;DHT22;6753;52.520;13.450;2023-04-15T00:16:15;19.50;59.70
13369;DHT22;6753;52.520;13.450;2023-04-15T00:16:26;19.40;59.40
13369;DHT22;6753;52.520;13.450;2023-04-15T00:16:37;19.40;59.40
13369;DHT22;6753;52.520;13.450;2023-04-15T00:16:48;19.50;59.60
13369;DHT22;6753;52.520;13.450;2023-04-15T00:17:05;19.50;59.60
13369;DHT22;6753;52.520;13.450;2023-04-15T00:17:16;19.40;59.40
13369;DHT22;6753;52.520;13.450;2023-04-15T00:17:27;19.50;59.60
13369;DHT22;6753;52.520;13.450;2023-04-15T00:17:38;21.10;60.80
13369;DHT22;6753;52.520;13.450;2023-04-15T00:17:50;19.40;59.50
13369;DHT22;6753;52.520;13.450;2023-04-15T00:18:01;19.40;59.30
13369;DHT22;6753;52.520;13.450;2023-04-15T00:18:18;19.40;59.40
13369;DHT22;6753;52.520;13.450;2023-04-15T00:18:29;19.50;59.50
13369;DHT22;6753;52.520;13.450;2023-04-15T00:18:41;19.40;59.30
13369;DHT22;6753;52.520;13.450;2023-04-15T00:18:51;19.40;59.30
13369;DHT22;6753;52.520;13.450;2023-04-15T00:19:02;19.40;59.40
13369;DHT22;6753;52.520;13.450;2023-04-15T00:19:13;19.50;59.50
13369;DHT22;6753;52.520;13.450;2023-04-15T00:19:23;19.40;59.40
13369;DHT22;6753;52.520;13.450;2023-04-15T00:19:34;19.50;59.50
13369;DHT22;6753;52.520;13.450;2023-04-15T00:19:46;19.40;59.40
13369;DHT22;6753;52.520;13.450;2023-04-15T00:19:57;19.40;59.30
13369;DHT22;6753;52.520;13.450;2023-04-15T00:20:10;19.40;59.20
13369;DHT22;6753;52.520;13.450;2023-04-15T00:20:21;19.40;59.30
13369;DHT22;6753;52.520;13.450;2023-04-15T00:20:32;19.40;59.40
13369;DHT22;6753;52.520;13.450;2023-04-15T00:20:43;19.40;59.30
13369;DHT22;6753;52.520;13.450;2023-04-15T00:20:55;19.40;59.20
13369;DHT22;6753;52.520;13.450;2023-04-15T00:21:06;19.40;59.20
13369;DHT22;6753;52.520;13.450;2023-04-15T00:21:17;19.40;59.20
13369;DHT22;6753;52.520;13.450;2023-04-15T00:21:29;19.50;59.40
13369;DHT22;6753;52.520;13.450;2023-04-15T00:21:39;19.40;59.30
13369;DHT22;6753;52.520;13.450;2023-04-15T00:21:50;19.40;59.30
13369;DHT22;6753;52.520;13.450;2023-04-15T00:22:01;19.40;59.30
13369;DHT22;6753;52.520;13.450;2023-04-15T00:22:12;19.40;59.30
13369;DHT22;6753;52.520;13.450;2023-04-15T00:22:22;20.90;60.60
13369;DHT22;6753;52.520;13.450;2023-04-15T00:22:33;19.40;59.20
13369;DHT22;6753;52.520;13.450;2023-04-15T00:22:45;19.40;59.20
13369;DHT22;6753;52.520;13.450;2023-04-15T00:22:56;20.70;60.50
13369;DHT22;6753;52.520;13.450;2023-04-15T00:23:08;19.40;59.80
13369;DHT22;6753;52.520;13.450;2023-04-15T00:23:19;19.40;59.30
13369;DHT22;6753;52.520;13.450;2023-04-15T00:23:30;19.70;59.70
13369;DHT22;6753;52.520;13.450;2023-04-15T00:23:41;19.40;59.30
13369;DHT22;6753;52.520;13.450;2023-04-15T00:23:53;19.40;59.30
13369;DHT22;6753;52.520;13.450;2023-04-15T00:24:04;19.40;59.20
13369;DHT22;6753;52.520;13.450;2023-04-15T00:24:15;19.40;59.20
13369;DHT22;6753;52.520;13.450;2023-04-15T00:24:27;19.40;59.20
13369;DHT22;6753;52.520;13.450;2023-04-15T00:24:38;19.40;59.20
13369;DHT22;6753;52.520;13.450;2023-04-15T00:24:49;19.40;59.10
13369;DHT22;6753;52.520;13.450;2023-04-15T00:25:00;19.40;59.20
13369;DHT22;6753;52.520;13.450;2023-04-15T00:25:11;19.40;59.20
13369;DHT22;6753;52.520;13.450;2023-04-15T00:25:21;19.40;59.30
13369;DHT22;6753;52.520;13.450;2023-04-15T00:25:32;19.40;59.20
13369;DHT22;6753;52.520;13.450;2023-04-15T00:25:43;19.40;59.20
13369;DHT22;6753;52.520;13.450;2023-04-15T00:25:54;19.40;59.20
13369;DHT22;6753;52.520;13.450;2023-04-15T00:26:06;19.40;59.20
13369;DHT22;6753;52.520;13.450;2023-04-15T00:26:18;19.40;59.20
13369;DHT22;6753;52.520;13.450;2023-04-15T00:26:28;19.40;59.10
13369;DHT22;6753;52.520;13.450;2023-04-15T00:26:39;19.40;59.10
13369;DHT22;6753;52.520;13.450;2023-04-15T00:26:50;19.40;59.20
13369;DHT22;6753;52.520;13.450;2023-04-15T00:27:01;19.40;59.10
13369;DHT22;6753;52.520;13.450;2023-04-15T00:27:11;19.40;59.10
13369;DHT22;6753;52.520;13.450;2023-04-15T00:27:22;19.40;59.30
13369;DHT22;6753;52.520;13.450;2023-04-15T00:27:33;19.40;59.60
13369;DHT22;6753;52.520;13.450;2023-04-15T00:27:44;19.40;60.00
13369;DHT22;6753;52.520;13.450;2023-04-15T00:27:55;19.40;60.00
13369;DHT22;6753;52.520;13.450;2023-04-15T00:28:06;19.40;60.00
13369;DHT22;6753;52.520;13.450;2023-04-15T00:28:18;19.40;60.40
13369;DHT22;6753;52.520;13.450;2023-04-15T00:28:28;19.40;60.30
13369;DHT22;6753;52.520;13.450;2023-04-15T00:28:40;19.40;60.20
13369;DHT22;6753;52.520;13.450;2023-04-15T00:28:51;19.50;60.20
13369;DHT22;6753;52.520;13.450;2023-04-15T00:29:01;19.40;60.00
13369;DHT22;6753;52.520;13.450;2023-04-15T00:29:12;19.40;59.90
13369;DHT22;6753;52.520;13.450;2023-04-15T00:29:24;19.40;59.90
13369;DHT22;6753;52.520;13.450;2023-04-15T00:29:35;19.40;59.70
13369;DHT22;6753;52.520;13.450;2023-04-15T00:29:46;19.40;60.00
13369;DHT22;6753;52.520;13.450;2023-04-15T00:29:57;19.40;60.00
13369;DHT22;6753;52.520;13.450;2023-04-15T00:30:08;19.40;59.80
13369;DHT22;6753;52.520;13.450;2023-04-15T00:30:18;19.80;60.10
13369;DHT22;6753;52.520;13.450;2023-04-15T00:30:29;19.40;59.70
13369;DHT22;6753;52.520;13.450;2023-04-15T00:30:40;19.40;59.70
13369;DHT22;6753;52.520;13.450;2023-04-15T00:30:51;19.40;59.60
13369;DHT22;6753;52.520;13.450;2023-04-15T00:31:03;19.40;59.70
13369;DHT22;6753;52.520;13.450;2023-04-15T00:31:14;19.40;60.00
13369;DHT22;6753;52.520;13.450;2023-04-15T00:31:25;19.40;60.00
13369;DHT22;6753;52.520;13.450;2023-04-15T00:31:35;19.40;60.10
13369;DHT22;6753;52.520;13.450;2023-04-15T00:31:46;19.30;59.90
13369;DHT22;6753;52.520;13.450;2023-04-15T00:31:57;19.40;60.10
13369;DHT22;6753;52.520;13.450;2023-04-15T00:32:08;21.00;61.20
13369;DHT22;6753;52.520;13.450;2023-04-15T00:32:19;21.00;61.20
13369;DHT22;6753;52.520;13.450;2023-04-15T00:32:30;19.40;60.00
13369;DHT22;6753;52.520;13.450;2023-04-15T00:32:41;19.40;60.00
13369;DHT22;6753;52.520;13.450;2023-04-15T00:32:52;19.40;59.90
13369;DHT22;6753;52.520;13.450;2023-04-15T00:33:02;19.40;59.30
13369;DHT22;6753;52.520;13.450;2023-04-15T00:33:14;19.30;59.00
13369;DHT22;6753;52.520;13.450;2023-04-15T00:33:25;19.30;59.40
13369;DHT22;6753;52.520;13.450;2023-04-15T00:33:37;19.30;59.50
13369;DHT22;6753;52.520;13.450;2023-04-15T00:33:48;19.30;59.80
13369;DHT22;6753;52.520;13.450;2023-04-15T00:33:59;19.30;60.00
13369;DHT22;6753;52.520;13.450;2023-04-15T00:34:09;19.30;60.10
13369;DHT22;6753;52.520;13.450;2023-04-15T00:34:20;19.30;59.80
13369;DHT22;6753;52.520;13.450;2023-04-15T00:34:31;19.30;59.10
13369;DHT22;6753;52.520;13.450;2023-04-15T00:34:41;19.30;59.40
13369;DHT22;6753;52.520;13.450;2023-04-15T00:34:52;21.10;61.00
13369;DHT22;6753;52.520;13.450;2023-04-15T00:35:05;19.30;59.50
13369;DHT22;6753;52.520;13.450;2023-04-15T00:35:15;19.30;59.60
13369;DHT22;6753;52.520;13.450;2023-04-15T00:35:26;19.30;59.50
13369;DHT22;6753;52.520;13.450;2023-04-15T00:35:37;19.30;59.40
13369;DHT22;6753;52.520;13.450;2023-04-15T00:35:48;19.30;59.30
13369;DHT22;6753;52.520;13.450;2023-04-15T00:35:59;19.30;59.30
13369;DHT22;6753;52.520;13.450;2023-04-15T00:36:09;19.20;59.20
13369;DHT22;6753;52.520;13.450;2023-04-15T00:36:20;19.20;59.20
13369;DHT22;6753;52.520;13.450;2023-04-15T00:36:31;19.20;59.00
13369;DHT22;6753;52.520;13.450;2023-04-15T00:36:44;19.20;58.90
13369;DHT22;6753;52.520;13.450;2023-04-15T00:36:55;19.20;58.60
13369;DHT22;6753;52.520;13.450;2023-04-15T00:37:05;19.10;58.10
13369;DHT22;6753;52.520;13.450;2023-04-15T00:37:16;19.10;58.60
13369;DHT22;6753;52.520;13.450;2023-04-15T00:37:27;19.10;58.90
13369;DHT22;6753;52.520;13.450;2023-04-15T00:37:38;19.10;59.10
13369;DHT22;6753;52.520;13.450;2023-04-15T00:37:49;19.10;59.20
13369;DHT22;6753;52.520;13.450;2023-04-15T00:38:00;19.10;59.20
13369;DHT22;6753;52.520;13.450;2023-04-15T00:38:12;19.10;59.10
13369;DHT22;6753;52.520;13.450;2023-04-15T00:38:23;19.10;59.00
13369;DHT22;6753;52.520;13.450;2023-04-15T00:38:35;19.10;59.10
13369;DHT22;6753;52.520;13.450;2023-04-15T00:38:46;19.10;59.10
13369;DHT22;6753;52.520;13.450;2023-04-15T00:38:58;19.10;59.00
13369;DHT22;6753;52.520;13.450;2023-04-15T00:39:08;19.10;58.90
13369;DHT22;6753;52.520;13.450;2023-04-15T00:39:19;19.00;58.70
13369;DHT22;6753;52.520;13.450;2023-04-15T00:39:30;19.10;58.70
13369;DHT22;6753;52.520;13.450;2023-04-15T00:39:41;20.40;60.20
13369;DHT22;6753;52.520;13.450;2023-04-15T00:39:53;19.00;58.40
13369;DHT22;6753;52.520;13.450;2023-04-15T00:40:05;19.00;58.20
13369;DHT22;6753;52.520;13.450;2023-04-15T00:40:18;19.00;58.00
13369;DHT22;6753;52.520;13.450;2023-04-15T00:40:30;19.00;58.50
13369;DHT22;6753;52.520;13.450;2023-04-15T00:40:41;19.10;58.90
13369;DHT22;6753;52.520;13.450;2023-04-15T00:40:52;19.00;58.60
13369;DHT22;6753;52.520;13.450;2023-04-15T00:41:03;19.10;58.50
13369;DHT22;6753;52.520;13.450;2023-04-15T00:41:14;19.00;58.20
13369;DHT22;6753;52.520;13.450;2023-04-15T00:41:26;19.00;57.90
13369;DHT22;6753;52.520;13.450;2023-04-15T00:41:37;19.00;57.60
13369;DHT22;6753;52.520;13.450;2023-04-15T00:41:49;19.00;57.70
13369;DHT22;6753;52.520;13.450;2023-04-15T00:41:59;19.00;57.70
13369;DHT22;6753;52.520;13.450;2023-04-15T00:42:12;19.00;57.70
13369;DHT22;6753;52.520;13.450;2023-04-15T00:42:24;19.00;57.80
13369;DHT22;6753;52.520;13.450;2023-04-15T00:42:35;19.00;57.90
13369;DHT22;6753;52.520;13.450;2023-04-15T00:42:46;19.00;58.10
13369;DHT22;6753;52.520;13.450;2023-04-15T00:42:58;19.00;58.00
13369;DHT22;6753;52.520;13.450;2023-04-15T00:43:09;19.00;57.90
13369;DHT22;6753;52.520;13.450;2023-04-15T00:43:20;19.00;57.40
13369;DHT22;6753;52.520;13.450;2023-04-15T00:43:30;19.00;57.10
13369;DHT22;6753;52.520;13.450;2023-04-15T00:43:41;19.00;56.80
13369;DHT22;6753;52.520;13.450;2023-04-15T00:43:52;18.90;56.80
13369;DHT22;6753;52.520;13.450;2023-04-15T00:44:04;19.10;57.20
13369;DHT22;6753;52.520;13.450;2023-04-15T00:44:15;19.00;56.90
13369;DHT22;6753;52.520;13.450;2023-04-15T00:44:28;19.00;56.70
13369;DHT22;6753;52.520;13.450;2023-04-15T00:44:38;19.00;57.00
13369;DHT22;6753;52.520;13.450;2023-04-15T00:44:49;19.00;56.80
13369;DHT22;6753;52.520;13.450;2023-04-15T00:45:00;18.90;56.10
13369;DHT22;6753;52.520;13.450;2023-04-15T00:45:11;19.00;56.80
13369;DHT22;6753;52.520;13.450;2023-04-15T00:45:22;19.00;56.70
13369;DHT22;6753;52.520;13.450;2023-04-15T00:45:33;19.00;56.50
13369;DHT22;6753;52.520;13.450;2023-04-15T00:45:44;19.00;56.40
13369;DHT22;6753;52.520;13.450;2023-04-15T00:45:58;18.90;56.40
13369;DHT22;6753;52.520;13.450;2023-04-15T00:46:09;18.90;56.40
13369;DHT22;6753;52.520;13.450;2023-04-15T00:46:22;18.90;55.50
13369;DHT22;6753;52.520;13.450;2023-04-15T00:46:35;18.90;56.30
13369;DHT22;6753;52.520;13.450;2023-04-15T00:46:47;18.90;56.20
13369;DHT22;6753;52.520;13.450;2023-04-15T00:47:00;18.90;56.20
13369;DHT22;6753;52.520;13.450;2023-04-15T00:47:11;18.90;56.10
13369;DHT22;6753;52.520;13.450;2023-04-15T00:47:23;18.90;56.30
13369;DHT22;6753;52.520;13.450;2023-04-15T00:47:35;18.90;56.70
13369;DHT22;6753;52.520;13.450;2023-04-15T00:47:47;18.90;56.50
13369;DHT22;6753;52.520;13.450;2023-04-15T00:47:58;20.50;58.60
13369;DHT22;6753;52.520;13.450;2023-04-15T00:48:09;18.90;56.40
13369;DHT22;6753;52.520;13.450;2023-04-15T00:48:20;18.90;56.50
13369;DHT22;6753;52.520;13.450;2023-04-15T00:48:32;18.90;56.40
13369;DHT22;6753;52.520;13.450;2023-04-15T00:48:43;18.90;56.50
13369;DHT22;6753;52.520;13.450;2023-04-15T00:48:54;18.90;56.50
13369;DHT22;6753;52.520;13.450;2023-04-15T00:49:05;20.10;58.50
13369;DHT22;6753;52.520;13.450;2023-04-15T00:49:16;18.90;56.90
13369;DHT22;6753;52.520;13.450;2023-04-15T00:49:29;18.90;56.90
13369;DHT22;6753;52.520;13.450;2023-04-15T00:49:42;18.90;57.20
13369;DHT22;6753;52.520;13.450;2023-04-15T00:49:53;18.90;57.30
13369;DHT22;6753;52.520;13.450;2023-04-15T00:50:06;18.90;57.40
13369;DHT22;6753;52.520;13.450;2023-04-15T00:50:17;18.90;57.30
13369;DHT22;6753;52.520;13.450;2023-04-15T00:50:28;18.90;57.10
13369;DHT22;6753;52.520;13.450;2023-04-15T00:50:39;18.90;57.10
13369;DHT22;6753;52.520;13.450;2023-04-15T00:50:49;18.90;57.10
13369;DHT22;6753;52.520;13.450;2023-04-15T00:51:00;18.90;57.00
13369;DHT22;6753;52.520;13.450;2023-04-15T00:51:11;18.90;56.80
13369;DHT22;6753;52.520;13.450;2023-04-15T00:51:22;18.90;56.60
13369;DHT22;6753;52.520;13.450;2023-04-15T00:51:35;18.90;56.70
13369;DHT22;6753;52.520;13.450;2023-04-15T00:51:46;18.90;56.70
13369;DHT22;6753;52.520;13.450;2023-04-15T00:51:59;18.90;56.60
13369;DHT22;6753;52.520;13.450;2023-04-15T00:52:09;18.90;56.70
13369;DHT22;6753;52.520;13.450;2023-04-15T00:52:20;18.90;56.60
13369;DHT22;6753;52.520;13.450;2023-04-15T00:52:31;18.90;56.70
13369;DHT22;6753;52.520;13.450;2023-04-15T00:52:42;18.90;56.70
13369;DHT22;6753;52.520;13.450;2023-04-15T00:52:53;18.90;56.60
13369;DHT22;6753;52.520;13.450;2023-04-15T00:53:04;18.90;56.60
13369;DHT22;6753;52.520;13.450;2023-04-15T00:53:15;18.90;56.60
13369;DHT22;6753;52.520;13.450;2023-04-15T00:53:27;18.90;56.60
13369;DHT22;6753;52.520;13.450;2023-04-15T00:53:38;18.90;56.60
13369;DHT22;6753;52.520;13.450;2023-04-15T00:53:49;18.90;56.60
13369;DHT22;6753;52.520;13.450;2023-04-15T00:54:02;18.90;56.60
13369;DHT22;6753;52.520;13.450;2023-04-15T00:54:13;19.00;56.80
13369;DHT22;6753;52.520;13.450;2023-04-15T00:54:25;18.90;56.70
13369;DHT22;6753;52.520;13.450;2023-04-15T00:54:36;18.90;56.70
13369;DHT22;6753;52.520;13.450;2023-04-15T00:54:47;18.90;56.70
13369;DHT22;6753;52.520;13.450;2023-04-15T00:54:58;18.90;56.70
13369;DHT22;6753;52.520;13.450;2023-04-15T00:55:09;18.90;56.90
13369;DHT22;6753;52.520;13.450;2023-04-15T00:55:20;19.00;57.50
13369;DHT22;6753;52.520;13.450;2023-04-15T00:55:31;19.00;57.60
13369;DHT22;6753;52.520;13.450;2023-04-15T00:55:43;19.00;57.70
13369;DHT22;6753;52.520;13.450;2023-04-15T00:55:54;19.00;57.70
13369;DHT22;6753;52.520;13.450;2023-04-15T00:56:06;19.00;57.70
13369;DHT22;6753;52.520;13.450;2023-04-15T00:56:17;19.00;57.70
13369;DHT22;6753;52.520;13.450;2023-04-15T00:56:29;19.00;57.70
13369;DHT22;6753;52.520;13.450;2023-04-15T00:56:41;19.00;57.70
13369;DHT22;6753;52.520;13.450;2023-04-15T00:56:52;18.90;57.50
13369;DHT22;6753;52.520;13.450;2023-04-15T00:57:04;19.00;57.70
13369;DHT22;6753;52.520;13.450;2023-04-15T00:57:15;19.00;57.70
13369;DHT22;6753;52.520;13.450;2023-04-15T00:57:27;19.00;57.70
13369;DHT22;6753;52.520;13.450;2023-04-15T00:57:39;19.00;57.80
13369;DHT22;6753;52.520;13.450;2023-04-15T00:57:50;19.00;57.90
13369;DHT22;6753;52.520;13.450;2023-04-15T00:58:01;19.00;58.00
13369;DHT22;6753;52.520;13.450;2023-04-15T00:58:12;19.00;57.90
13369;DHT22;6753;52.520;13.450;2023-04-15T00:58:22;19.00;58.00
13369;DHT22;6753;52.520;13.450;2023-04-15T00:58:33;19.00;57.90
13369;DHT22;6753;52.520;13.450;2023-04-15T00:58:46;19.00;57.80
13369;DHT22;6753;52.520;13.450;2023-04-15T00:58:58;19.00;57.80
13369;DHT22;6753;52.520;13.450;2023-04-15T00:59:08;19.00;57.90
13369;DHT22;6753;52.520;13.450;2023-04-15T00:59:20;19.00;58.00
13369;DHT22;6753;52.520;13.450;2023-04-15T00:59:32;19.30;59.00
13369;DHT22;6753;52.520;13.450;2023-04-15T00:59:42;21.70;60.90
13369;DHT22;6753;52.520;13.450;2023-04-15T00:59:54;19.00;58.00
13369;DHT22;6753;52.520;13.450;2023-04-15T01:00:07;19.00;58.00
13369;DHT22;6753;52.520;13.450;2023-04-15T01:00:19;19.00;58.00
13369;DHT22;6753;52.520;13.450;2023-04-15T01:00:30;19.00;58.00
13369;DHT22;6753;52.520;13.450;2023-04-15T01:00:41;19.00;58.00
13369;DHT22;6753;52.520;13.450;2023-04-15T01:00:53;20.70;60.30
13369;DHT22;6753;52.520;13.450;2023-04-15T01:01:04;19.10;58.30
13369;DHT22;6753;52.520;13.450;2023-04-15T01:01:15;19.00;58.10
13369;DHT22;6753;52.520;13.450;2023-04-15T01:01:27;19.10;58.80
13369;DHT22;6753;52.520;13.450;2023-04-15T01:01:39;19.10;58.20
13369;DHT22;6753;52.520;13.450;2023-04-15T01:01:51;19.10;58.20
13369;DHT22;6753;52.520;13.450;2023-04-15T01:02:02;19.10;58.30
13369;DHT22;6753;52.520;13.450;2023-04-15T01:02:13;19.00;58.10
13369;DHT22;6753;52.520;13.450;2023-04-15T01:02:24;19.10;58.30
13369;DHT22;6753;52.520;13.450;2023-04-15T01:02:35;19.10;58.80
13369;DHT22;6753;52.520;13.450;2023-04-15T01:02:46;19.10;58.20
13369;DHT22;6753;52.520;13.450;2023-04-15T01:02:57;19.10;58.20
13369;DHT22;6753;52.520;13.450;2023-04-15T01:03:08;19.10;58.10
13369;DHT22;6753;52.520;13.450;2023-04-15T01:03:20;19.10;58.10
13369;DHT22;6753;52.520;13.450;2023-04-15T01:03:32;19.10;58.10
13369;DHT22;6753;52.520;13.450;2023-04-15T01:03:42;19.10;58.60
13369;DHT22;6753;52.520;13.450;2023-04-15T01:03:56;19.10;58.00
13369;DHT22;6753;52.520;13.450;2023-04-15T01:04:07;19.10;58.00
13369;DHT22;6753;52.520;13.450;2023-04-15T01:04:20;19.10;58.00
13369;DHT22;6753;52.520;13.450;2023-04-15T01:04:31;19.10;58.00
13369;DHT22;6753;52.520;13.450;2023-04-15T01:04:44;19.10;58.00
13369;DHT22;6753;52.520;13.450;2023-04-15T01:04:55;19.60;58.70
13369;DHT22;6753;52.520;13.450;2023-04-15T01:05:06;19.10;58.00
13369;DHT22;6753;52.520;13.450;2023-04-15T01:05:18;19.10;58.00
13369;DHT22;6753;52.520;13.450;2023-04-15T01:05:29;20.80;60.40
13369;DHT22;6753;52.520;13.450;2023-04-15T01:05:40;19.10;58.00
13369;DHT22;6753;52.520;13.450;2023-04-15T01:05:51;19.10;57.90
13369;DHT22;6753;52.520;13.450;2023-04-15T01:06:07;19.10;58.00
13369;DHT22;6753;52.520;13.450;2023-04-15T01:06:19;19.10;57.90
13369;DHT22;6753;52.520;13.450;2023-04-15T01:06:30;19.10;57.90
13369;DHT22;6753;52.520;13.450;2023-04-15T01:06:41;19.10;58.00
13369;DHT22;6753;52.520;13.450;2023-04-15T01:06:52;19.10;57.80
13369;DHT22;6753;52.520;13.450;2023-04-15T01:07:03;19.10;57.80
13369;DHT22;6753;52.520;13.450;2023-04-15T01:07:14;19.10;57.80
13369;DHT22;6753;52.520;13.450;2023-04-15T01:07:25;19.10;57.80
13369;DHT22;6753;52.520;13.450;2023-04-15T01:07:35;19.10;57.70
13369;DHT22;6753;52.520;13.450;2023-04-15T01:07:47;19.10;57.70
13369;DHT22;6753;52.520;13.450;2023-04-15T01:07:59;19.10;57.70
13369;DHT22;6753;52.520;13.450;2023-04-15T01:08:09;19.10;57.70
13369;DHT22;6753;52.520;13.450;2023-04-15T01:08:20;19.10;57.70
13369;DHT22;6753;52.520;13.450;2023-04-15T01:08:31;19.10;57.70
13369;DHT22;6753;52.520;13.450;2023-04-15T01:08:42;19.10;57.70
13369;DHT22;6753;52.520;13.450;2023-04-15T01:08:53;19.10;57.70
13369;DHT22;6753;52.520;13.450;2023-04-15T01:09:06;19.10;57.80
13369;DHT22;6753;52.520;13.450;2023-04-15T01:09:17;19.10;57.70
13369;DHT22;6753;52.520;13.450;2023-04-15T01:09:31;19.10;57.80
13369;DHT22;6753;52.520;13.450;2023-04-15T01:09:42;19.10;57.80
13369;DHT22;6753;52.520;13.450;2023-04-15T01:09:53;19.10;57.80
13369;DHT22;6753;52.520;13.450;2023-04-15T01:10:06;19.10;57.90
13369;DHT22;6753;52.520;13.450;2023-04-15T01:10:17;19.10;57.90
13369;DHT22;6753;52.520;13.450;2023-04-15T01:10:28;19.20;58.00
13369;DHT22;6753;52.520;13.450;2023-04-15T01:10:40;19.20;58.00
13369;DHT22;6753;52.520;13.450;2023-04-15T01:10:51;19.10;57.80
13369;DHT22;6753;52.520;13.450;2023-04-15T01:11:04;19.20;57.80
13369;DHT22;6753;52.520;13.450;2023-04-15T01:11:16;19.20;57.70
13369;DHT22;6753;52.520;13.450;2023-04-15T01:11:27;19.20;57.70
13369;DHT22;6753;52.520;13.450;2023-04-15T01:11:38;19.10;57.60